KDAN/DAN METAR and TAF weather

Enter ICAO airport designator
Station Type Date Time Source
KDAN METAR 2019/07/18 10:53 UTC NOAA

KDAN 181053Z AUTO 23004KT 10SM CLR 23/21 A2996 RMK AO2 SLP133 T02280206


Station Type Date Time Source
KDAN Decoded METAR 2019/07/18 10:53 UTC NOAA

DANVILLE REGIONAL AIRPORT, VA, United States (KDAN) 36-34N 079-20W 175M
Jul 18, 2019 - 06:53 AM EDT / 2019.07.18 1053 UTC
Wind: from the SW (230 degrees) at 5 MPH (4 KT):0
Visibility: 10 mile(s):0
Sky conditions: clear
Temperature: 73.0 F (22.8 C)
Dew Point: 69.1 F (20.6 C)
Relative Humidity: 87%
Pressure (altimeter): 29.96 in. Hg (1014 hPa)
ob: KDAN 181053Z AUTO 23004KT 10SM CLR 23/21 A2996 RMK AO2 SLP133 T02280206
cycle: 11

Station Type Date Time Source
KDAN TAF 2019/07/18 06:22 UTC NOAA

TAF KDAN 180520Z 1806/1906 20003KT P6SM SCT090
TEMPO 1808/1812 3SM BR
FM181700 26007KT P6SM SCT045 BKN120
FM182300 25005KT P6SM BKN200

Example: see airport list